Terminal Aerodrome Forecast
Issued by NWS Portland, ME

Home | Current Version | Previous Version | Text Only | Print | Product List | Glossary On
Versions: 1 2 3 4 5 6 7 8 9 10 11 12 13 14 15 16 17 18 19 20 21 22 23 24 25 26 27
000
FTUS41 KGYX 280119 AAA
TAFPWM
TAF AMD
KPWM 280119Z 2801/2824 08003KT P6SM BKN005
     FM280400 VRB03KT 4SM BR OVC003
     FM280600 VRB03KT 1/2SM FG VV002
     FM281300 30006KT P6SM SCT030
     FM281500 30005KT P6SM BKN040=

USA.gov is the U.S. government's official web portal to all federal, state and local government web resources and services.